createdAt,value
2023-03-10T00:00:18.651Z,9.98
2023-03-10T00:02:49.766Z,5.97
2023-03-10T00:05:20.509Z,5.45
2023-03-10T00:07:56.068Z,4.57
2023-03-10T00:10:25.403Z,3.75
2023-03-10T00:13:01.624Z,6.15
2023-03-10T00:15:31.176Z,5.63
2023-03-10T00:18:00.343Z,7.15
2023-03-10T00:20:34.622Z,5.20
2023-03-10T00:23:04.210Z,3.88
2023-03-10T00:25:33.368Z,3.13
2023-03-10T00:28:09.608Z,5.75
2023-03-10T00:30:43.723Z,4.23
2023-03-10T00:33:13.030Z,5.45
2023-03-10T00:35:42.268Z,4.90
2023-03-10T00:38:11.447Z,4.43
2023-03-10T00:40:46.094Z,5.20
2023-03-10T00:43:18.218Z,3.47
2023-03-10T00:45:47.337Z,4.22
2023-03-10T00:48:16.412Z,5.70
2023-03-10T00:50:50.892Z,3.65
2023-03-10T00:53:20.287Z,4.03
2023-03-10T00:56:00.229Z,5.45
2023-03-10T00:58:37.531Z,4.13
2023-03-10T01:01:12.614Z,3.60
2023-03-10T01:03:41.877Z,5.90
2023-03-10T01:06:11.064Z,3.78
2023-03-10T01:08:40.299Z,5.78
2023-03-10T01:11:09.474Z,4.97
2023-03-10T01:13:41.201Z,3.58
2023-03-10T01:16:11.089Z,4.07
2023-03-10T01:18:40.414Z,3.92
2023-03-10T01:21:09.830Z,2.50
2023-03-10T01:23:38.960Z,3.35
2023-03-10T01:26:08.106Z,3.20
2023-03-10T01:28:37.666Z,3.88
2023-03-10T01:31:14.458Z,2.53
2023-03-10T01:33:45.302Z,5.75
2023-03-10T01:36:16.222Z,4.00
2023-03-10T01:38:54.359Z,3.72
2023-03-10T01:41:29.607Z,2.03
2023-03-10T01:43:59.167Z,2.33
2023-03-10T01:46:49.580Z,3.05
2023-03-10T01:49:46.493Z,3.50
2023-03-10T01:52:19.864Z,2.55
2023-03-10T01:54:53.896Z,2.92
2023-03-10T01:57:26.555Z,3.38
2023-03-10T02:00:02.522Z,3.08
2023-03-10T02:02:39.524Z,2.10
2023-03-10T02:05:15.737Z,2.97
2023-03-10T02:10:28.339Z,3.17
2023-03-10T02:12:58.024Z,3.60
2023-03-10T02:15:28.321Z,2.97
2023-03-10T02:18:00.599Z,2.20
2023-03-10T02:20:42.094Z,1.95
2023-03-10T02:23:21.818Z,3.35
2023-03-10T02:25:56.087Z,2.33
2023-03-10T02:28:27.339Z,2.00
2023-03-10T02:30:58.577Z,3.53
2023-03-10T02:33:31.034Z,4.20
2023-03-10T02:36:05.714Z,2.85
2023-03-10T02:41:25.396Z,4.50
2023-03-10T02:44:04.443Z,3.72
2023-03-10T02:46:34.182Z,4.82
2023-03-10T02:49:05.737Z,2.88
2023-03-10T02:51:43.841Z,4.00
2023-03-10T02:54:17.098Z,3.33
2023-03-10T02:56:46.819Z,2.35
2023-03-10T02:59:19.577Z,2.70
2023-03-10T03:01:52.788Z,2.30
2023-03-10T03:04:22.773Z,4.15
2023-03-10T03:06:52.140Z,2.42
2023-03-10T03:09:23.462Z,1.90
2023-03-10T03:11:53.236Z,3.55
2023-03-10T03:14:24.493Z,2.00
2023-03-10T03:16:55.113Z,3.55
2023-03-10T03:19:29.996Z,2.30
2023-03-10T03:22:00.040Z,3.28
2023-03-10T03:24:32.139Z,1.80
2023-03-10T03:27:04.412Z,4.30
2023-03-10T03:29:36.071Z,2.42
2023-03-10T03:32:06.125Z,1.25
2023-03-10T03:34:36.961Z,3.05
2023-03-10T03:37:08.037Z,1.52
2023-03-10T03:39:40.774Z,2.60
2023-03-10T03:42:16.235Z,1.40
2023-03-10T03:44:53.109Z,1.52
2023-03-10T03:47:23.979Z,1.85
2023-03-10T03:49:58.577Z,3.42
2023-03-10T03:52:34.876Z,1.58
2023-03-10T03:57:41.718Z,2.80
2023-03-10T04:00:17.882Z,2.58
2023-03-10T04:02:50.038Z,1.95
2023-03-10T04:05:25.358Z,2.30
2023-03-10T04:07:54.785Z,2.88
2023-03-10T04:10:31.071Z,3.10
2023-03-10T04:13:00.865Z,1.48
2023-03-10T04:15:37.356Z,2.40
2023-03-10T04:18:07.859Z,2.58
2023-03-10T04:20:42.534Z,3.45
2023-03-10T04:23:11.947Z,1.67
2023-03-10T04:25:42.916Z,2.88
2023-03-10T04:28:13.540Z,2.22
2023-03-10T04:30:47.362Z,3.33
2023-03-10T04:33:18.718Z,2.90
2023-03-10T04:35:51.045Z,2.35
2023-03-10T04:40:58.745Z,2.20
2023-03-10T04:43:33.445Z,2.60
2023-03-10T04:46:09.789Z,5.40
2023-03-10T04:48:40.129Z,3.20
2023-03-10T04:51:17.060Z,2.53
2023-03-10T04:53:54.786Z,3.25
2023-03-10T04:59:01.060Z,3.65
2023-03-10T05:01:33.808Z,2.60
2023-03-10T05:04:07.981Z,4.00
2023-03-10T05:06:37.803Z,2.60
2023-03-10T05:09:45.337Z,4.22
2023-03-10T05:12:15.670Z,3.03
2023-03-10T05:14:50.116Z,3.20
2023-03-10T05:17:21.181Z,4.05
2023-03-10T05:22:27.115Z,1.95
2023-03-10T05:24:56.960Z,2.13
2023-03-10T05:27:26.167Z,2.28
2023-03-10T05:29:55.395Z,3.50
2023-03-10T05:32:30.018Z,2.47
2023-03-10T05:37:28.852Z,2.55
2023-03-10T05:45:18.075Z,3.47
2023-03-10T05:47:55.523Z,3.53
2023-03-10T05:50:24.772Z,3.00
2023-03-10T05:52:54.145Z,2.38
2023-03-10T05:55:24.735Z,3.40
2023-03-10T05:57:53.884Z,3.00
2023-03-10T06:00:23.920Z,2.92
2023-03-10T06:03:09.170Z,3.88
2023-03-10T06:05:38.611Z,4.40
2023-03-10T06:08:08.475Z,4.07
2023-03-10T06:10:48.670Z,3.72
2023-03-10T06:13:19.674Z,4.72
2023-03-10T06:15:51.764Z,3.38
2023-03-10T06:18:29.267Z,3.65
2023-03-10T06:21:03.770Z,4.88
2023-03-10T06:23:33.464Z,3.03
2023-03-10T06:26:11.121Z,3.83
2023-03-10T06:28:43.421Z,4.65
2023-03-10T06:31:16.366Z,3.83
2023-03-10T06:33:47.769Z,4.28
2023-03-10T06:36:18.676Z,3.55
2023-03-10T06:38:47.974Z,2.75
2023-03-10T06:43:58.181Z,3.67
2023-03-10T06:46:28.482Z,3.15
2023-03-10T06:49:06.125Z,4.45
2023-03-10T06:51:35.284Z,5.20
2023-03-10T06:54:04.776Z,5.50
2023-03-10T06:56:33.932Z,4.05
2023-03-10T06:59:03.076Z,4.85
2023-03-10T07:01:33.859Z,5.30
2023-03-10T07:04:05.786Z,4.47
2023-03-10T07:06:40.196Z,4.80
2023-03-10T07:09:14.762Z,3.45
2023-03-10T07:11:43.990Z,3.88
2023-03-10T07:14:13.150Z,2.78
2023-03-10T07:16:42.416Z,6.10
2023-03-10T07:19:13.613Z,3.88
2023-03-10T07:21:43.151Z,3.53
2023-03-10T07:24:12.385Z,7.45
2023-03-10T07:26:41.896Z,4.28
2023-03-10T07:29:16.105Z,4.95
2023-03-10T07:31:46.156Z,3.67
2023-03-10T07:34:17.314Z,5.00
2023-03-10T07:36:46.611Z,5.25
2023-03-10T07:39:18.113Z,4.03
2023-03-10T07:41:53.511Z,3.53
2023-03-10T07:44:24.850Z,3.45
2023-03-10T07:46:54.867Z,2.50
2023-03-10T07:49:26.483Z,3.58
2023-03-10T07:51:56.223Z,3.70
2023-03-10T07:54:25.897Z,3.15
2023-03-10T07:56:54.983Z,4.20
2023-03-10T07:59:24.188Z,4.78
2023-03-10T08:01:53.407Z,6.95
2023-03-10T08:04:22.587Z,4.97
2023-03-10T08:06:53.840Z,3.65
2023-03-10T08:09:23.474Z,4.47
2023-03-10T08:11:52.704Z,2.60
2023-03-10T08:14:23.757Z,4.47
2023-03-10T08:16:59.322Z,3.53
2023-03-10T08:19:30.116Z,2.28
2023-03-10T08:22:01.794Z,4.28
2023-03-10T08:24:31.265Z,4.72
2023-03-10T08:27:00.424Z,4.93
2023-03-10T08:29:29.607Z,2.92
2023-03-10T08:31:58.832Z,4.13
2023-03-10T08:34:28.243Z,2.72
2023-03-10T08:36:58.443Z,3.22
2023-03-10T08:39:40.189Z,3.70
2023-03-10T08:42:12.306Z,3.80
2023-03-10T08:44:47.222Z,4.13
2023-03-10T08:47:16.660Z,2.72
2023-03-10T08:49:48.786Z,1.85
2023-03-10T08:52:18.660Z,4.35
2023-03-10T08:54:49.766Z,2.72
2023-03-10T08:59:48.440Z,3.65
2023-03-10T09:02:22.962Z,3.22
2023-03-10T09:04:54.189Z,4.38
2023-03-10T09:07:28.743Z,3.95
2023-03-10T09:10:00.421Z,4.07
2023-03-10T09:12:37.825Z,2.65
2023-03-10T09:15:09.794Z,2.47
2023-03-10T09:17:40.776Z,4.22
2023-03-10T09:20:11.837Z,1.88
2023-03-10T09:22:51.095Z,3.33
2023-03-10T09:25:23.725Z,2.72
2023-03-10T09:27:53.050Z,2.15
2023-03-10T09:30:22.613Z,3.55
2023-03-10T09:32:52.030Z,3.88
2023-03-10T09:35:24.556Z,5.43
2023-03-10T09:37:53.859Z,3.28
2023-03-10T09:40:25.258Z,3.20
2023-03-10T09:42:59.356Z,4.65
2023-03-10T09:45:42.145Z,3.85
2023-03-10T09:48:26.624Z,3.17
2023-03-10T09:51:06.400Z,3.65
2023-03-10T09:53:53.133Z,3.85
2023-03-10T09:56:29.979Z,2.90
2023-03-10T09:59:05.097Z,3.17
2023-03-10T10:01:35.310Z,3.85
2023-03-10T10:04:11.630Z,4.10
2023-03-10T10:06:50.832Z,4.82
2023-03-10T10:09:27.541Z,4.53
2023-03-10T10:11:59.369Z,2.97
2023-03-10T10:14:31.970Z,4.10
2023-03-10T10:17:15.250Z,4.10
2023-03-10T10:19:47.648Z,2.10
2023-03-10T10:22:23.830Z,3.58
2023-03-10T10:25:12.243Z,3.45
2023-03-10T10:27:45.089Z,3.85
2023-03-10T10:30:32.559Z,4.68
2023-03-10T10:33:03.641Z,4.68
2023-03-10T10:35:35.807Z,4.80
2023-03-10T10:38:07.810Z,3.83
2023-03-10T10:43:22.787Z,3.17
2023-03-10T10:45:56.063Z,2.85
2023-03-10T10:48:41.294Z,3.90
2023-03-10T10:51:24.050Z,4.80
2023-03-10T10:56:34.808Z,2.67
2023-03-10T10:59:08.542Z,4.85
2023-03-10T11:01:52.814Z,4.40
2023-03-10T11:04:24.365Z,3.13
2023-03-10T11:06:55.182Z,3.53
2023-03-10T11:09:25.444Z,3.90
2023-03-10T11:12:09.803Z,2.90
2023-03-10T11:15:01.456Z,2.33
2023-03-10T11:17:40.444Z,3.30
2023-03-10T11:20:31.861Z,3.10
2023-03-10T11:23:10.581Z,3.90
2023-03-10T11:25:52.190Z,3.35
2023-03-10T11:28:36.943Z,4.18
2023-03-10T11:31:19.408Z,2.88
2023-03-10T11:33:54.268Z,3.08
2023-03-10T11:36:55.312Z,3.13
2023-03-10T11:39:43.661Z,2.80
2023-03-10T11:42:26.098Z,2.60
2023-03-10T11:45:06.170Z,4.43
2023-03-10T11:47:56.782Z,3.13
2023-03-10T11:50:35.051Z,4.22
2023-03-10T11:53:12.697Z,4.63
2023-03-10T11:55:42.865Z,3.67
2023-03-10T11:58:30.294Z,3.38
2023-03-10T12:01:00.396Z,4.28
2023-03-10T12:03:48.135Z,3.83
2023-03-10T12:06:25.503Z,4.50
2023-03-10T12:09:03.264Z,3.80
2023-03-10T12:11:42.389Z,2.83
2023-03-10T12:14:16.517Z,4.18
2023-03-10T12:16:46.504Z,4.80
2023-03-10T12:19:17.660Z,4.72
2023-03-10T12:21:48.413Z,4.85
2023-03-10T12:24:50.274Z,4.10
2023-03-10T12:27:19.707Z,3.08
2023-03-10T12:29:49.886Z,3.50
2023-03-10T12:32:48.889Z,6.05
2023-03-10T12:35:51.808Z,4.28
2023-03-10T12:38:32.176Z,5.72
2023-03-10T12:41:02.799Z,3.28
2023-03-10T12:43:44.610Z,4.60
2023-03-10T12:53:10.404Z,4.57
2023-03-10T12:55:43.751Z,4.07
2023-03-10T12:58:21.258Z,2.72
2023-03-10T13:00:55.015Z,3.85
2023-03-10T13:03:32.310Z,2.83
2023-03-10T13:06:08.096Z,4.65
2023-03-10T13:08:52.177Z,4.30
2023-03-10T13:11:38.450Z,3.15
2023-03-10T13:14:13.867Z,2.55
2023-03-10T13:16:55.624Z,2.28
2023-03-10T13:19:27.400Z,3.85
2023-03-10T13:21:57.266Z,3.05
2023-03-10T13:24:31.760Z,3.25
2023-03-10T13:27:10.270Z,5.63
2023-03-10T13:29:44.899Z,3.60
2023-03-10T13:32:20.461Z,3.58
2023-03-10T13:34:56.104Z,2.78
2023-03-10T13:37:26.134Z,2.45
2023-03-10T13:40:09.588Z,4.43
2023-03-10T13:42:44.225Z,5.88
2023-03-10T13:45:24.136Z,3.90
2023-03-10T13:47:53.806Z,3.63
2023-03-10T13:50:23.187Z,3.20
2023-03-10T13:53:04.261Z,2.83
2023-03-10T13:55:42.051Z,4.57
2023-03-10T13:58:15.187Z,1.67
2023-03-10T14:00:50.011Z,1.65
2023-03-10T14:03:19.616Z,2.25
2023-03-10T14:05:50.436Z,3.20
2023-03-10T14:08:27.587Z,3.53
2023-03-10T14:11:26.724Z,5.45
2023-03-10T14:13:56.313Z,2.85
2023-03-10T14:16:46.983Z,4.13
2023-03-10T14:19:45.439Z,3.47
2023-03-10T14:22:43.028Z,3.70
2023-03-10T14:25:17.291Z,3.47
2023-03-10T14:27:52.313Z,2.92
2023-03-10T14:30:25.560Z,3.88
2023-03-10T14:32:55.712Z,6.00
2023-03-10T14:35:26.114Z,2.88
2023-03-10T14:37:55.858Z,4.85
2023-03-10T14:40:26.637Z,4.90
2023-03-10T14:43:07.298Z,5.00
2023-03-10T14:45:40.147Z,3.92
2023-03-10T14:48:15.379Z,5.75
2023-03-10T14:50:44.859Z,3.92
2023-03-10T14:53:16.944Z,4.75
2023-03-10T14:55:49.519Z,5.72
2023-03-10T14:58:24.451Z,3.90
2023-03-10T15:00:54.216Z,4.07
2023-03-10T15:03:23.374Z,6.03
2023-03-10T15:05:52.515Z,4.07
2023-03-10T15:08:21.720Z,3.85
2023-03-10T15:10:53.200Z,6.40
2023-03-10T15:13:26.259Z,3.90
2023-03-10T15:15:55.845Z,5.45
2023-03-10T15:18:27.716Z,4.63
2023-03-10T15:23:32.594Z,5.97
2023-03-10T15:26:08.977Z,7.03
2023-03-10T15:28:41.155Z,5.32
2023-03-10T15:31:10.578Z,3.70
2023-03-10T15:33:39.848Z,5.63
2023-03-10T15:36:14.752Z,3.97
2023-03-10T15:38:43.985Z,3.80
2023-03-10T15:41:13.844Z,6.82
2023-03-10T15:46:20.780Z,5.65
2023-03-10T15:48:49.963Z,3.88
2023-03-10T15:51:24.374Z,4.15
2023-03-10T15:53:53.513Z,5.00
2023-03-10T15:56:23.152Z,4.50
2023-03-10T15:58:54.836Z,6.28
2023-03-10T16:01:26.425Z,4.93
2023-03-10T16:04:00.702Z,4.20
2023-03-10T16:06:30.964Z,5.85
2023-03-10T16:09:00.168Z,3.55
2023-03-10T16:11:34.442Z,4.53
2023-03-10T16:14:06.120Z,6.43
2023-03-10T16:16:40.965Z,4.75
2023-03-10T16:19:10.188Z,3.53
2023-03-10T16:21:39.948Z,3.85
2023-03-10T16:24:09.912Z,5.68
2023-03-10T16:26:39.293Z,5.70
2023-03-10T16:29:11.050Z,5.28
2023-03-10T16:31:40.525Z,4.25
2023-03-10T16:34:09.971Z,4.43
2023-03-10T16:36:39.412Z,6.32
2023-03-10T16:39:10.305Z,5.22
2023-03-10T16:41:40.018Z,4.03
2023-03-10T16:44:19.192Z,5.90
2023-03-10T16:46:48.503Z,5.50
2023-03-10T16:49:17.978Z,6.15
2023-03-10T16:51:53.528Z,5.88
2023-03-10T16:54:24.165Z,5.95
2023-03-10T16:56:56.695Z,4.15
2023-03-10T16:59:27.911Z,4.38
2023-03-10T17:01:57.274Z,4.00
2023-03-10T17:04:27.673Z,6.03
2023-03-10T17:06:56.968Z,5.70
2023-03-10T17:09:26.288Z,3.72
2023-03-10T17:12:00.550Z,3.35
2023-03-10T17:14:38.638Z,7.22
2023-03-10T17:17:08.215Z,4.32
2023-03-10T17:19:37.428Z,6.72
2023-03-10T17:22:11.886Z,7.80
2023-03-10T17:24:41.087Z,11.57
2023-03-10T17:27:10.352Z,5.00
2023-03-10T17:29:41.886Z,8.60
2023-03-10T17:32:16.631Z,5.43
2023-03-10T17:34:51.609Z,6.97
2023-03-10T17:37:20.933Z,6.45
2023-03-10T17:39:50.073Z,8.65
2023-03-10T17:42:19.369Z,5.22
2023-03-10T17:44:50.426Z,21.00
2023-03-10T17:47:19.721Z,7.18
2023-03-10T17:49:49.218Z,5.07
2023-03-10T17:52:18.421Z,3.72
2023-03-10T17:54:47.922Z,5.82
2023-03-10T17:57:17.186Z,4.63
2023-03-10T17:59:46.287Z,8.82
2023-03-10T18:02:18.011Z,4.07
2023-03-10T18:04:48.250Z,6.63
2023-03-10T18:07:17.630Z,5.00
2023-03-10T18:09:46.884Z,5.57
2023-03-10T18:12:19.233Z,4.60
2023-03-10T18:14:48.625Z,3.17
2023-03-10T18:17:19.924Z,4.90
2023-03-10T18:19:52.545Z,6.43
2023-03-10T18:22:21.631Z,9.85
2023-03-10T18:24:50.637Z,5.20
2023-03-10T18:27:19.907Z,5.75
2023-03-10T18:29:48.960Z,6.57
2023-03-10T18:32:26.129Z,7.13
2023-03-10T18:34:57.594Z,8.70
2023-03-10T18:37:33.617Z,7.22
2023-03-10T18:40:03.601Z,7.25
2023-03-10T18:42:41.229Z,12.68
2023-03-10T18:45:14.006Z,26.55
2023-03-10T18:47:46.827Z,4.97
2023-03-10T18:50:16.389Z,6.38
2023-03-10T18:52:47.501Z,5.93
2023-03-10T18:55:16.931Z,5.18
2023-03-10T18:57:46.539Z,4.80
2023-03-10T19:00:22.072Z,5.32
2023-03-10T19:02:55.622Z,5.95
2023-03-10T19:05:25.788Z,5.63
2023-03-10T19:07:56.190Z,4.93
2023-03-10T19:10:25.531Z,4.90
2023-03-10T19:12:54.696Z,5.18
2023-03-10T19:15:29.125Z,4.57
2023-03-10T19:18:05.370Z,6.35
2023-03-10T19:20:34.669Z,4.38
2023-03-10T19:23:03.794Z,5.43
2023-03-10T19:25:33.126Z,8.30
2023-03-10T19:28:02.264Z,16.60
2023-03-10T19:30:33.339Z,8.27
2023-03-10T19:33:04.516Z,7.78
2023-03-10T19:35:34.770Z,10.00
2023-03-10T19:38:09.611Z,10.68
2023-03-10T19:40:41.430Z,8.73
2023-03-10T19:45:45.701Z,9.00
2023-03-10T19:48:17.046Z,8.98
2023-03-10T19:50:56.134Z,7.82
2023-03-10T19:53:31.589Z,11.60
2023-03-10T19:56:03.290Z,11.50
2023-03-10T19:58:33.598Z,9.00
2023-03-10T20:01:03.122Z,16.98
2023-03-10T20:03:34.622Z,13.65
2023-03-10T20:06:04.734Z,13.95
2023-03-10T20:08:33.879Z,15.90
2023-03-10T20:11:07.068Z,15.98
2023-03-10T20:13:36.610Z,15.50
2023-03-10T20:16:06.491Z,17.00
2023-03-10T20:18:38.435Z,15.88
2023-03-10T20:21:08.662Z,15.93
2023-03-10T20:23:37.790Z,20.65
2023-03-10T20:26:14.552Z,18.63
2023-03-10T20:28:44.594Z,14.65
2023-03-10T20:31:17.368Z,17.65
2023-03-10T20:33:48.632Z,13.45
2023-03-10T20:36:18.384Z,14.40
2023-03-10T20:38:48.703Z,13.68
2023-03-10T20:41:23.462Z,13.55
2023-03-10T20:43:57.527Z,13.32
2023-03-10T20:46:27.010Z,13.57
2023-03-10T20:48:58.115Z,18.75
2023-03-10T20:51:27.570Z,14.85
2023-03-10T20:53:57.170Z,13.60
2023-03-10T20:56:26.333Z,14.77
2023-03-10T20:58:59.003Z,14.15
2023-03-10T21:01:29.119Z,16.15
2023-03-10T21:04:05.221Z,14.70
2023-03-10T21:06:35.499Z,13.73
2023-03-10T21:09:10.633Z,14.10
2023-03-10T21:11:40.119Z,12.63
2023-03-10T21:14:09.224Z,13.90
2023-03-10T21:16:42.438Z,13.57
2023-03-10T21:19:13.909Z,11.27
2023-03-10T21:21:53.274Z,12.65
2023-03-10T21:24:22.632Z,10.82
2023-03-10T21:26:51.883Z,12.48
2023-03-10T21:29:21.146Z,10.15
2023-03-10T21:31:50.266Z,10.43
2023-03-10T21:34:31.470Z,8.45
2023-03-10T21:37:00.869Z,12.43
2023-03-10T21:39:29.990Z,9.68
2023-03-10T21:41:59.506Z,11.40
2023-03-10T21:44:28.645Z,10.10
2023-03-10T21:46:57.898Z,9.35
2023-03-10T21:49:28.948Z,9.18
2023-03-10T21:51:58.137Z,11.25
2023-03-10T21:54:28.212Z,12.43
2023-03-10T21:56:58.848Z,11.90
2023-03-10T21:59:28.192Z,11.23
2023-03-10T22:01:57.284Z,13.77
2023-03-10T22:04:28.603Z,9.00
2023-03-10T22:07:04.330Z,8.90
2023-03-10T22:09:36.525Z,10.65
2023-03-10T22:12:12.642Z,9.10
2023-03-10T22:14:42.084Z,9.32
2023-03-10T22:17:11.164Z,9.50
2023-03-10T22:19:42.701Z,9.32
2023-03-10T22:22:11.933Z,12.73
2023-03-10T22:24:42.705Z,9.38
2023-03-10T22:27:12.151Z,10.93
2023-03-10T22:29:42.613Z,11.25
2023-03-10T22:32:11.917Z,8.63
2023-03-10T22:34:48.453Z,13.68
2023-03-10T22:37:17.944Z,9.88
2023-03-10T22:39:51.150Z,16.25
2023-03-10T22:42:24.084Z,10.90
2023-03-10T22:44:53.313Z,13.07
2023-03-10T22:47:22.433Z,11.30
2023-03-10T22:50:05.549Z,12.88
2023-03-10T22:52:34.714Z,9.95
2023-03-10T22:55:03.775Z,11.00
2023-03-10T22:57:32.886Z,12.50
2023-03-10T23:00:01.975Z,15.27
2023-03-10T23:02:31.589Z,11.73
2023-03-10T23:05:00.670Z,13.52
2023-03-10T23:07:31.867Z,12.35
2023-03-10T23:10:08.092Z,13.10
2023-03-10T23:12:38.874Z,10.77
2023-03-10T23:15:15.353Z,12.88
2023-03-10T23:17:51.952Z,11.27
2023-03-10T23:20:21.713Z,15.82
2023-03-10T23:22:52.915Z,12.75
2023-03-10T23:25:24.084Z,13.15
2023-03-10T23:27:53.647Z,8.60
2023-03-10T23:30:22.957Z,9.93
2023-03-10T23:32:52.979Z,10.88
2023-03-10T23:35:23.638Z,13.02
2023-03-10T23:37:54.944Z,11.52
2023-03-10T23:40:30.463Z,19.73
2023-03-10T23:43:02.072Z,14.23
2023-03-10T23:45:33.955Z,15.40
2023-03-10T23:48:06.103Z,17.77
2023-03-10T23:50:42.275Z,16.98
2023-03-10T23:53:15.376Z,13.10
2023-03-10T23:55:46.780Z,13.13
2023-03-10T23:58:17.355Z,13.88
